createdAt,value
2018-07-13T00:01:47.169Z,5.00
2018-07-13T00:04:14.873Z,5.73
2018-07-13T00:06:42.919Z,7.43
2018-07-13T00:09:11.726Z,7.70
2018-07-13T00:11:40.007Z,6.83
2018-07-13T00:14:15.028Z,8.53
2018-07-13T00:16:43.444Z,5.00
2018-07-13T00:19:11.611Z,9.77
2018-07-13T00:21:39.321Z,5.07
2018-07-13T00:24:08.281Z,6.70
2018-07-13T00:26:36.445Z,6.57
2018-07-13T00:29:04.671Z,8.60
2018-07-13T00:31:32.502Z,7.37
2018-07-13T00:34:00.374Z,7.43
2018-07-13T00:36:28.569Z,8.23
2018-07-13T00:38:56.294Z,6.70
2018-07-13T00:41:24.006Z,6.77
2018-07-13T00:43:51.799Z,6.40
2018-07-13T00:46:21.494Z,9.37
2018-07-13T00:48:49.289Z,7.97
2018-07-13T00:51:17.307Z,7.37
2018-07-13T00:53:45.411Z,6.57
2018-07-13T00:56:13.354Z,5.23
2018-07-13T00:58:41.123Z,8.50
2018-07-13T01:01:08.906Z,8.70
2018-07-13T01:03:36.761Z,7.83
2018-07-13T01:06:04.529Z,7.10
2018-07-13T01:08:32.301Z,8.87
2018-07-13T01:11:00.045Z,8.63
2018-07-13T01:13:27.815Z,5.93
2018-07-13T01:15:55.703Z,7.93
2018-07-13T01:18:23.441Z,6.33
2018-07-13T01:20:51.245Z,8.30
2018-07-13T01:23:18.966Z,6.23
2018-07-13T01:25:46.704Z,8.43
2018-07-13T01:28:14.411Z,8.00
2018-07-13T01:30:42.178Z,7.83
2018-07-13T01:33:09.881Z,6.40
2018-07-13T01:35:37.813Z,8.90
2018-07-13T01:38:05.510Z,6.50
2018-07-13T01:40:33.331Z,6.83
2018-07-13T01:43:01.014Z,9.90
2018-07-13T01:45:28.737Z,8.17
2018-07-13T01:47:56.442Z,8.63
2018-07-13T01:50:24.181Z,5.77
2018-07-13T01:52:52.304Z,8.30
2018-07-13T01:55:20.015Z,8.73
2018-07-13T01:57:47.747Z,7.77
2018-07-13T02:00:15.421Z,8.10
2018-07-13T02:02:43.179Z,8.53
2018-07-13T02:05:10.926Z,8.50
2018-07-13T02:07:38.982Z,12.17
2018-07-13T02:10:06.699Z,8.47
2018-07-13T02:12:34.383Z,7.67
2018-07-13T02:15:02.094Z,6.67
2018-07-13T02:17:29.786Z,6.37
2018-07-13T02:19:57.497Z,8.00
2018-07-13T02:22:25.242Z,6.43
2018-07-13T02:24:52.928Z,5.30
2018-07-13T02:27:20.632Z,9.10
2018-07-13T02:29:48.344Z,6.63
2018-07-13T02:32:16.052Z,7.70
2018-07-13T02:34:43.779Z,7.63
2018-07-13T02:37:11.490Z,6.87
2018-07-13T02:39:40.110Z,7.23
2018-07-13T02:42:07.771Z,6.47
2018-07-13T02:44:35.454Z,6.53
2018-07-13T02:47:03.157Z,5.70
2018-07-13T02:49:30.859Z,7.77
2018-07-13T02:51:58.612Z,8.37
2018-07-13T02:54:26.282Z,8.83
2018-07-13T02:56:53.987Z,9.07
2018-07-13T02:59:21.798Z,6.93
2018-07-13T03:01:50.093Z,4.83
2018-07-13T03:04:17.810Z,7.73
2018-07-13T03:06:45.585Z,6.77
2018-07-13T03:09:13.348Z,7.80
2018-07-13T03:11:41.405Z,6.03
2018-07-13T03:14:09.305Z,6.40
2018-07-13T03:16:40.686Z,6.77
2018-07-13T03:19:10.022Z,8.23
2018-07-13T03:21:37.742Z,8.67
2018-07-13T03:24:05.489Z,6.00
2018-07-13T03:26:33.189Z,9.20
2018-07-13T03:29:00.869Z,7.17
2018-07-13T03:31:29.297Z,6.77
2018-07-13T03:33:57.097Z,12.90
2018-07-13T03:36:24.816Z,5.47
2018-07-13T03:38:52.501Z,7.67
2018-07-13T03:41:20.261Z,9.77
2018-07-13T03:43:48.002Z,6.77
2018-07-13T03:46:15.868Z,8.63
2018-07-13T03:48:43.639Z,9.03
2018-07-13T03:51:11.356Z,6.10
2018-07-13T03:53:39.388Z,6.67
2018-07-13T03:56:07.655Z,7.93
2018-07-13T03:58:35.430Z,9.97
2018-07-13T04:01:03.171Z,7.50
2018-07-13T04:03:30.843Z,8.53
2018-07-13T04:05:58.579Z,8.50
2018-07-13T04:08:26.342Z,9.27
2018-07-13T04:10:54.005Z,10.40
2018-07-13T04:13:21.742Z,8.10
2018-07-13T04:15:49.450Z,9.93
2018-07-13T04:18:19.604Z,9.10
2018-07-13T04:20:47.822Z,8.07
2018-07-13T04:23:15.588Z,9.37
2018-07-13T04:25:43.401Z,8.10
2018-07-13T04:28:11.421Z,8.13
2018-07-13T04:30:39.351Z,10.70
2018-07-13T04:33:07.169Z,7.27
2018-07-13T04:35:34.907Z,8.53
2018-07-13T04:38:02.683Z,8.23
2018-07-13T04:40:30.431Z,11.37
2018-07-13T04:42:58.193Z,9.07
2018-07-13T04:45:26.384Z,9.07
2018-07-13T04:47:54.177Z,9.40
2018-07-13T04:50:22.074Z,10.07
2018-07-13T04:55:18.877Z,10.13
2018-07-13T04:57:46.922Z,12.33
2018-07-13T05:00:14.662Z,11.20
2018-07-13T05:02:42.515Z,8.73
2018-07-13T05:05:10.307Z,7.53
2018-07-13T05:07:38.051Z,13.00
2018-07-13T05:10:06.350Z,8.73
2018-07-13T05:12:34.425Z,7.80
2018-07-13T05:15:02.238Z,9.23
2018-07-13T05:17:30.042Z,10.67
2018-07-13T05:19:57.859Z,10.13
2018-07-13T05:22:25.683Z,13.33
2018-07-13T05:24:53.658Z,10.23
2018-07-13T05:27:22.461Z,9.20
2018-07-13T05:29:50.278Z,11.53
2018-07-13T05:32:18.031Z,9.23
2018-07-13T05:34:46.113Z,10.20
2018-07-13T05:37:13.865Z,10.10
2018-07-13T05:39:41.679Z,9.93
2018-07-13T05:42:09.451Z,12.57
2018-07-13T05:44:37.242Z,9.80
2018-07-13T05:47:05.171Z,10.23
2018-07-13T05:49:32.917Z,9.27
2018-07-13T05:52:00.757Z,7.90
2018-07-13T05:54:28.546Z,9.27
2018-07-13T05:56:56.312Z,11.10
2018-07-13T05:59:24.143Z,8.73
2018-07-13T06:01:52.006Z,9.10
2018-07-13T06:04:19.802Z,9.03
2018-07-13T06:06:48.423Z,10.20
2018-07-13T06:09:16.547Z,9.13
2018-07-13T06:11:44.425Z,11.47
2018-07-13T06:14:12.498Z,7.93
2018-07-13T06:16:40.263Z,10.43
2018-07-13T06:19:08.055Z,8.70
2018-07-13T06:21:35.765Z,11.17
2018-07-13T06:24:03.544Z,11.67
2018-07-13T06:26:31.690Z,11.27
2018-07-13T06:28:59.530Z,9.17
2018-07-13T06:31:27.285Z,9.30
2018-07-13T06:33:55.007Z,10.53
2018-07-13T06:36:22.764Z,9.30
2018-07-13T06:38:50.604Z,9.70
2018-07-13T06:41:18.376Z,12.53
2018-07-13T06:43:46.174Z,10.23
2018-07-13T06:46:13.958Z,10.27
2018-07-13T06:48:41.714Z,8.27
2018-07-13T06:51:09.478Z,9.67
2018-07-13T06:53:37.315Z,7.63
2018-07-13T06:56:05.081Z,9.60
2018-07-13T06:58:50.078Z,7.57
2018-07-13T07:01:17.788Z,7.23
2018-07-13T07:04:53.386Z,9.37
2018-07-13T07:07:24.310Z,9.90
2018-07-13T07:09:55.608Z,11.87
2018-07-13T07:13:43.464Z,7.57
2018-07-13T07:16:11.305Z,7.37
2018-07-13T07:18:39.239Z,8.63
2018-07-13T07:21:07.355Z,9.37
2018-07-13T07:23:35.334Z,9.23
2018-07-13T07:26:03.724Z,8.37
2018-07-13T07:28:31.535Z,7.97
2018-07-13T07:31:00.223Z,7.67
2018-07-13T07:33:27.957Z,7.93
2018-07-13T07:35:55.783Z,7.63
2018-07-13T07:38:24.250Z,10.17
2018-07-13T07:40:52.079Z,6.53
2018-07-13T07:43:20.243Z,6.97
2018-07-13T07:45:48.061Z,6.83
2018-07-13T07:48:15.868Z,7.93
2018-07-13T07:50:43.838Z,9.60
2018-07-13T07:59:55.166Z,6.43
2018-07-13T08:02:22.924Z,8.93
2018-07-13T08:04:50.691Z,7.13
2018-07-13T08:07:18.634Z,6.53
2018-07-13T08:09:46.115Z,8.80
2018-07-13T08:12:13.815Z,8.50
2018-07-13T08:14:41.690Z,6.20
2018-07-13T08:17:09.377Z,6.13
2018-07-13T08:19:37.210Z,5.60
2018-07-13T08:22:13.300Z,8.27
2018-07-13T08:24:41.122Z,9.13
2018-07-13T08:27:15.795Z,6.70
2018-07-13T08:29:43.638Z,7.63
2018-07-13T08:32:11.582Z,9.07
2018-07-13T08:34:39.027Z,7.87
2018-07-13T08:37:06.726Z,11.67
2018-07-13T08:39:34.435Z,5.23
2018-07-13T08:42:02.187Z,8.00
2018-07-13T08:44:29.918Z,8.07
2018-07-13T08:46:57.644Z,6.20
2018-07-13T08:49:25.414Z,6.47
2018-07-13T08:51:53.150Z,7.77
2018-07-13T08:54:20.951Z,10.10
2018-07-13T08:56:50.053Z,8.08
2018-07-13T08:59:17.811Z,7.77
2018-07-13T09:01:45.538Z,10.13
2018-07-13T09:04:13.259Z,10.53
2018-07-13T09:06:40.949Z,13.50
2018-07-13T09:09:15.113Z,6.35
2018-07-13T09:11:42.877Z,6.10
2018-07-13T09:14:10.674Z,5.85
2018-07-13T09:16:38.382Z,10.03
2018-07-13T09:19:06.445Z,6.97
2018-07-13T09:21:34.315Z,5.53
2018-07-13T09:24:02.082Z,7.50
2018-07-13T09:26:29.793Z,6.10
2018-07-13T09:28:57.527Z,8.08
2018-07-13T09:31:25.283Z,13.20
2018-07-13T09:33:53.398Z,13.32
2018-07-13T09:36:21.150Z,4.30
2018-07-13T09:38:48.906Z,6.37
2018-07-13T09:41:16.684Z,6.78
2018-07-13T09:43:44.449Z,7.40
2018-07-13T09:46:12.206Z,6.75
2018-07-13T09:48:39.933Z,5.67
2018-07-13T09:51:07.667Z,5.08
2018-07-13T09:53:35.889Z,7.10
2018-07-13T09:56:03.631Z,4.83
2018-07-13T09:58:33.411Z,8.00
2018-07-13T10:01:07.061Z,8.18
2018-07-13T10:03:34.833Z,7.60
2018-07-13T10:06:02.807Z,5.37
2018-07-13T10:08:31.479Z,5.83
2018-07-13T10:10:59.264Z,7.65
2018-07-13T10:13:27.127Z,6.92
2018-07-13T10:15:55.951Z,7.28
2018-07-13T10:18:23.818Z,5.87
2018-07-13T10:20:52.465Z,5.40
2018-07-13T10:23:21.541Z,4.30
2018-07-13T10:25:55.450Z,6.37
2018-07-13T10:28:24.611Z,7.05
2018-07-13T10:30:52.363Z,5.78
2018-07-13T10:33:20.886Z,5.33
2018-07-13T10:35:49.021Z,6.30
2018-07-13T10:38:16.818Z,7.53
2018-07-13T10:40:44.850Z,6.42
2018-07-13T10:43:12.724Z,5.67
2018-07-13T10:45:40.517Z,5.83
2018-07-13T10:48:08.207Z,5.03
2018-07-13T10:50:36.394Z,5.12
2018-07-13T10:53:04.104Z,7.53
2018-07-13T10:55:31.833Z,6.05
2018-07-13T10:57:59.658Z,7.67
2018-07-13T11:00:27.376Z,6.45
2018-07-13T11:02:55.153Z,6.42
2018-07-13T11:05:23.605Z,5.87
2018-07-13T11:07:52.152Z,7.60
2018-07-13T11:10:19.890Z,8.95
2018-07-13T11:12:47.706Z,6.62
2018-07-13T11:15:15.497Z,6.05
2018-07-13T11:17:43.207Z,6.83
2018-07-13T11:20:10.913Z,5.55
2018-07-13T11:22:38.898Z,7.15
2018-07-13T11:25:06.642Z,5.55
2018-07-13T11:27:34.403Z,6.55
2018-07-13T11:30:02.081Z,8.10
2018-07-13T11:32:29.774Z,7.22
2018-07-13T11:34:57.479Z,6.45
2018-07-13T11:37:26.603Z,7.90
2018-07-13T11:39:54.346Z,9.38
2018-07-13T11:42:22.148Z,8.38
2018-07-13T11:44:49.958Z,8.85
2018-07-13T11:47:17.729Z,6.10
2018-07-13T11:49:45.629Z,6.83
2018-07-13T11:52:13.504Z,7.10
2018-07-13T11:54:41.236Z,8.48
2018-07-13T11:57:09.891Z,8.93
2018-07-13T11:59:39.131Z,7.90
2018-07-13T12:02:07.000Z,8.78
2018-07-13T12:04:34.774Z,8.95
2018-07-13T12:07:03.781Z,8.75
2018-07-13T12:09:31.565Z,7.95
2018-07-13T12:11:59.479Z,9.00
2018-07-13T12:14:27.369Z,10.05
2018-07-13T12:16:55.468Z,9.60
2018-07-13T12:19:23.577Z,9.10
2018-07-13T12:21:51.281Z,10.32
2018-07-13T12:24:19.204Z,7.33
2018-07-13T12:26:46.985Z,7.45
2018-07-13T12:29:14.806Z,11.43
2018-07-13T12:31:42.542Z,8.75
2018-07-13T12:34:10.290Z,6.80
2018-07-13T12:36:38.026Z,4.20
2018-07-13T12:39:06.527Z,7.20
2018-07-13T12:41:34.282Z,6.67
2018-07-13T12:44:02.067Z,6.85
2018-07-13T12:46:29.800Z,4.97
2018-07-13T12:48:57.539Z,5.78
2018-07-13T12:51:25.629Z,6.00
2018-07-13T12:53:53.463Z,4.33
2018-07-13T12:56:21.109Z,7.47
2018-07-13T12:58:49.267Z,5.40
2018-07-13T13:01:17.299Z,5.60
2018-07-13T13:03:45.841Z,6.83
2018-07-13T13:06:13.567Z,8.18
2018-07-13T13:08:41.233Z,6.45
2018-07-13T13:11:08.925Z,6.65
2018-07-13T13:13:36.651Z,6.12
2018-07-13T13:16:04.419Z,8.78
2018-07-13T13:18:32.124Z,6.80
2018-07-13T13:20:59.918Z,6.20
2018-07-13T13:23:27.647Z,7.30
2018-07-13T13:25:55.437Z,6.22
2018-07-13T13:28:23.173Z,6.55
2018-07-13T13:30:50.875Z,6.12
2018-07-13T13:33:18.569Z,4.17
2018-07-13T13:35:46.311Z,6.53
2018-07-13T13:38:14.091Z,5.25
2018-07-13T13:40:41.833Z,6.17
2018-07-13T13:43:09.551Z,9.98
2018-07-13T13:45:37.496Z,5.60
2018-07-13T13:48:05.576Z,5.45
2018-07-13T13:50:33.902Z,4.62
2018-07-13T13:53:01.799Z,6.22
2018-07-13T13:55:30.291Z,5.70
2018-07-13T13:57:58.063Z,5.12
2018-07-13T14:00:25.806Z,3.70
2018-07-13T14:02:53.523Z,4.12
2018-07-13T14:05:21.368Z,4.58
2018-07-13T14:07:49.082Z,5.20
2018-07-13T14:10:16.777Z,4.47
2018-07-13T14:12:44.502Z,5.42
2018-07-13T14:15:12.478Z,6.47
2018-07-13T14:17:40.221Z,4.15
2018-07-13T14:20:07.970Z,3.72
2018-07-13T14:22:35.763Z,6.67
2018-07-13T14:25:03.597Z,5.17
2018-07-13T14:27:31.412Z,4.47
2018-07-13T14:29:59.136Z,4.87
2018-07-13T14:32:26.862Z,5.10
2018-07-13T14:34:54.587Z,5.62
2018-07-13T14:37:22.354Z,6.92
2018-07-13T14:39:50.351Z,5.72
2018-07-13T14:42:18.146Z,5.92
2018-07-13T14:44:45.846Z,4.35
2018-07-13T14:47:14.005Z,6.37
2018-07-13T14:49:41.690Z,6.80
2018-07-13T14:52:09.437Z,3.92
2018-07-13T14:54:37.175Z,4.72
2018-07-13T14:57:04.878Z,4.55
2018-07-13T14:59:32.612Z,5.10
2018-07-13T15:02:01.203Z,7.33
2018-07-13T15:04:28.945Z,5.28
2018-07-13T15:06:56.953Z,6.47
2018-07-13T15:09:24.554Z,5.42
2018-07-13T15:11:52.241Z,6.08
2018-07-13T15:14:19.958Z,4.85
2018-07-13T15:16:47.738Z,6.17
2018-07-13T15:19:15.550Z,10.05
2018-07-13T15:21:43.692Z,5.55
2018-07-13T15:24:13.370Z,3.30
2018-07-13T15:26:42.053Z,3.47
2018-07-13T15:29:09.789Z,4.95
2018-07-13T15:31:37.686Z,4.22
2018-07-13T15:34:05.605Z,5.20
2018-07-13T15:36:33.355Z,5.65
2018-07-13T15:39:01.331Z,5.47
2018-07-13T15:41:29.158Z,5.90
2018-07-13T15:43:57.266Z,6.90
2018-07-13T15:46:25.036Z,4.10
2018-07-13T15:48:52.876Z,6.25
2018-07-13T15:51:20.672Z,5.00
2018-07-13T15:53:49.348Z,5.85
2018-07-13T15:56:17.159Z,4.53
2018-07-13T15:58:47.264Z,4.05
2018-07-13T16:01:14.999Z,6.87
2018-07-13T16:03:42.867Z,5.85
2018-07-13T16:06:11.384Z,4.17
2018-07-13T16:08:39.116Z,3.80
2018-07-13T16:11:06.847Z,3.50
2018-07-13T16:13:34.573Z,4.03
2018-07-13T16:16:02.364Z,4.80
2018-07-13T16:18:30.022Z,5.30
2018-07-13T16:20:57.855Z,4.42
2018-07-13T16:23:25.551Z,4.15
2018-07-13T16:25:53.315Z,4.22
2018-07-13T16:28:21.143Z,3.62
2018-07-13T16:30:48.811Z,5.78
2018-07-13T16:40:00.678Z,4.95
2018-07-13T16:42:28.408Z,3.08
2018-07-13T16:44:56.188Z,6.17
2018-07-13T16:47:23.934Z,3.02
2018-07-13T16:49:51.842Z,4.55
2018-07-13T16:52:19.663Z,6.50
2018-07-13T16:54:47.371Z,8.05
2018-07-13T16:57:15.230Z,8.05
2018-07-13T16:59:42.991Z,7.42
2018-07-13T17:02:10.946Z,7.00
2018-07-13T17:04:38.909Z,5.03
2018-07-13T17:07:06.735Z,3.67
2018-07-13T17:09:34.641Z,5.05
2018-07-13T17:12:02.542Z,2.90
2018-07-13T17:14:30.438Z,2.80
2018-07-13T17:16:58.141Z,5.28
2018-07-13T17:19:25.858Z,6.42
2018-07-13T17:21:53.804Z,3.30
2018-07-13T17:24:21.607Z,4.28
2018-07-13T17:26:49.569Z,2.40
2018-07-13T17:29:17.756Z,3.00
2018-07-13T17:31:46.247Z,5.37
2018-07-13T17:34:13.935Z,4.33
2018-07-13T17:36:41.715Z,5.97
2018-07-13T17:39:09.425Z,2.72
2018-07-13T17:41:37.099Z,3.47
2018-07-13T17:44:04.844Z,5.12
2018-07-13T17:46:32.554Z,3.85
2018-07-13T17:49:00.462Z,7.47
2018-07-13T17:51:28.087Z,4.25
2018-07-13T17:53:55.831Z,3.10
2018-07-13T17:56:23.591Z,3.92
2018-07-13T17:58:51.383Z,3.25
2018-07-13T18:01:19.188Z,4.45
2018-07-13T18:03:46.885Z,2.87
2018-07-13T18:06:15.666Z,5.62
2018-07-13T18:08:43.566Z,3.00
2018-07-13T18:11:11.250Z,4.20
2018-07-13T18:13:38.957Z,4.03
2018-07-13T18:16:06.704Z,3.27
2018-07-13T18:18:34.383Z,3.87
2018-07-13T18:21:02.099Z,3.27
2018-07-13T18:23:29.839Z,5.65
2018-07-13T18:25:57.523Z,2.90
2018-07-13T18:28:25.247Z,3.05
2018-07-13T18:30:52.957Z,4.33
2018-07-13T18:33:20.744Z,3.30
2018-07-13T18:35:48.446Z,3.55
2018-07-13T18:38:16.163Z,3.75
2018-07-13T18:40:43.930Z,4.15
2018-07-13T18:43:11.785Z,4.72
2018-07-13T18:45:39.546Z,4.70
2018-07-13T18:48:07.364Z,3.17
2018-07-13T18:50:35.093Z,4.00
2018-07-13T18:53:02.983Z,4.45
2018-07-13T18:55:30.718Z,4.75
2018-07-13T18:57:58.553Z,3.90
2018-07-13T19:00:26.447Z,4.50
2018-07-13T19:02:54.234Z,5.80
2018-07-13T19:05:22.119Z,6.00
2018-07-13T19:07:50.185Z,4.10
2018-07-13T19:10:18.032Z,2.45
2018-07-13T19:12:45.852Z,2.75
2018-07-13T19:15:13.569Z,7.33
2018-07-13T19:17:41.260Z,4.45
2018-07-13T19:20:08.982Z,3.47
2018-07-13T19:22:36.734Z,4.65
2018-07-13T19:25:04.523Z,3.72
2018-07-13T19:27:34.135Z,4.25
2018-07-13T19:30:01.845Z,2.95
2018-07-13T19:32:29.571Z,3.33
2018-07-13T19:34:57.433Z,2.90
2018-07-13T19:37:25.144Z,4.03
2018-07-13T19:39:54.195Z,5.37
2018-07-13T19:42:21.919Z,4.45
2018-07-13T19:44:49.687Z,4.35
2018-07-13T19:47:17.464Z,4.27
2018-07-13T19:49:45.654Z,4.07
2018-07-13T19:52:13.403Z,2.87
2018-07-13T19:54:41.238Z,2.53
2018-07-13T19:57:09.048Z,3.20
2018-07-13T19:59:36.694Z,3.73
2018-07-13T20:02:04.414Z,3.27
2018-07-13T20:04:32.283Z,4.27
2018-07-13T20:07:00.726Z,2.53
2018-07-13T20:09:28.414Z,6.77
2018-07-13T20:11:56.153Z,4.60
2018-07-13T20:14:23.858Z,3.97
2018-07-13T20:16:51.530Z,3.47
2018-07-13T20:19:19.213Z,3.23
2018-07-13T20:21:46.950Z,2.73
2018-07-13T20:24:14.981Z,3.20
2018-07-13T20:26:42.686Z,5.67
2018-07-13T20:29:10.418Z,3.30
2018-07-13T20:34:12.904Z,2.63
2018-07-13T20:36:40.642Z,3.90
2018-07-13T20:39:08.485Z,3.53
2018-07-13T20:41:36.577Z,2.87
2018-07-13T20:44:04.502Z,7.17
2018-07-13T20:46:32.222Z,7.27
2018-07-13T20:48:59.919Z,3.70
2018-07-13T20:51:27.623Z,4.23
2018-07-13T20:53:55.387Z,4.63
2018-07-13T20:56:23.555Z,3.13
2018-07-13T20:58:51.327Z,3.10
2018-07-13T21:01:19.040Z,3.00
2018-07-13T21:03:46.784Z,5.40
2018-07-13T21:06:14.631Z,6.67
2018-07-13T21:08:42.342Z,3.40
2018-07-13T21:11:10.056Z,3.07
2018-07-13T21:13:37.743Z,3.20
2018-07-13T21:16:05.493Z,3.73
2018-07-13T21:18:33.219Z,5.40
2018-07-13T21:21:01.159Z,3.13
2018-07-13T21:23:28.779Z,4.30
2018-07-13T21:25:56.476Z,3.67
2018-07-13T21:28:24.211Z,6.67
2018-07-13T21:30:51.897Z,4.53
2018-07-13T21:33:19.575Z,4.23
2018-07-13T21:35:47.294Z,7.17
2018-07-13T21:38:14.961Z,6.00
2018-07-13T21:40:42.637Z,7.17
2018-07-13T21:43:10.308Z,6.97
2018-07-13T21:45:38.030Z,7.37
2018-07-13T21:48:05.707Z,6.53
2018-07-13T21:50:33.401Z,8.07
2018-07-13T21:53:01.099Z,5.43
2018-07-13T21:55:28.788Z,4.97
2018-07-13T21:57:56.500Z,4.30
2018-07-13T22:00:24.230Z,5.90
2018-07-13T22:02:51.951Z,6.10
2018-07-13T22:05:19.680Z,3.90
2018-07-13T22:07:47.399Z,3.53
2018-07-13T22:10:15.316Z,4.77
2018-07-13T22:12:43.037Z,4.63
2018-07-13T22:15:10.842Z,4.10
2018-07-13T22:17:38.584Z,5.33
2018-07-13T22:20:06.354Z,4.53
2018-07-13T22:22:34.088Z,5.00
2018-07-13T22:25:01.822Z,4.27
2018-07-13T22:27:29.515Z,3.97
2018-07-13T22:29:57.228Z,3.93
2018-07-13T22:32:24.971Z,4.87
2018-07-13T22:34:52.750Z,4.00
2018-07-13T22:37:20.983Z,5.90
2018-07-13T22:39:48.733Z,3.57
2018-07-13T22:42:17.197Z,4.47
2018-07-13T22:44:45.136Z,5.60
2018-07-13T22:47:13.086Z,5.07
2018-07-13T22:49:41.885Z,7.77
2018-07-13T22:52:09.598Z,3.90
2018-07-13T22:54:37.299Z,3.90
2018-07-13T22:57:05.030Z,6.43
2018-07-13T22:59:32.711Z,3.60
2018-07-13T23:02:00.416Z,6.40
2018-07-13T23:04:28.272Z,6.83
2018-07-13T23:06:55.981Z,4.97
2018-07-13T23:09:23.767Z,4.17
2018-07-13T23:11:53.944Z,4.07
2018-07-13T23:14:22.169Z,5.00
2018-07-13T23:16:50.050Z,4.10
2018-07-13T23:19:17.781Z,3.73
2018-07-13T23:21:45.483Z,3.80
2018-07-13T23:24:13.191Z,4.53
2018-07-13T23:26:40.987Z,5.10
2018-07-13T23:29:09.558Z,4.80
2018-07-13T23:31:37.530Z,6.50
2018-07-13T23:34:05.230Z,4.33
2018-07-13T23:36:33.262Z,4.33
2018-07-13T23:39:01.084Z,5.20
2018-07-13T23:41:29.466Z,4.10
2018-07-13T23:43:57.405Z,4.57
2018-07-13T23:46:25.138Z,4.13
2018-07-13T23:48:52.822Z,3.47
2018-07-13T23:51:20.511Z,3.30
2018-07-13T23:53:48.243Z,3.80
2018-07-13T23:56:15.958Z,3.67
2018-07-13T23:58:43.648Z,4.60
